sensor_id;sensor_type;location;lat;lon;timestamp;temperature;humidity
59067;DHT22;44854;50.838;4.438;2024-03-02T00:00:04;8.50;99.90
59067;DHT22;44854;50.838;4.438;2024-03-02T00:02:46;8.50;99.90
59067;DHT22;44854;50.838;4.438;2024-03-02T00:05:13;8.50;99.90
59067;DHT22;44854;50.838;4.438;2024-03-02T00:07:44;8.50;99.90
59067;DHT22;44854;50.838;4.438;2024-03-02T00:10:11;8.40;99.90
59067;DHT22;44854;50.838;4.438;2024-03-02T00:12:40;8.40;99.90
59067;DHT22;44854;50.838;4.438;2024-03-02T00:17:55;8.40;99.90
59067;DHT22;44854;50.838;4.438;2024-03-02T00:20:24;8.40;99.90
59067;DHT22;44854;50.838;4.438;2024-03-02T00:23:05;8.40;99.90
59067;DHT22;44854;50.838;4.438;2024-03-02T00:25:55;8.30;99.90
59067;DHT22;44854;50.838;4.438;2024-03-02T00:28:25;8.30;99.90
59067;DHT22;44854;50.838;4.438;2024-03-02T00:33:50;8.30;99.90
59067;DHT22;44854;50.838;4.438;2024-03-02T00:36:22;8.20;99.90
59067;DHT22;44854;50.838;4.438;2024-03-02T00:38:51;8.20;99.90
59067;DHT22;44854;50.838;4.438;2024-03-02T00:41:24;8.20;99.90
59067;DHT22;44854;50.838;4.438;2024-03-02T00:44:03;8.20;99.90
59067;DHT22;44854;50.838;4.438;2024-03-02T00:46:33;8.20;99.90
59067;DHT22;44854;50.838;4.438;2024-03-02T00:49:02;8.30;99.90
59067;DHT22;44854;50.838;4.438;2024-03-02T00:51:33;8.30;99.90
59067;DHT22;44854;50.838;4.438;2024-03-02T00:54:04;8.30;99.90
59067;DHT22;44854;50.838;4.438;2024-03-02T00:56:30;8.30;99.90
59067;DHT22;44854;50.838;4.438;2024-03-02T00:58:56;8.30;99.90
59067;DHT22;44854;50.838;4.438;2024-03-02T01:01:22;8.30;99.90
59067;DHT22;44854;50.838;4.438;2024-03-02T01:03:49;8.30;99.90
59067;DHT22;44854;50.838;4.438;2024-03-02T01:06:15;8.30;99.90
59067;DHT22;44854;50.838;4.438;2024-03-02T01:08:41;8.30;99.90
59067;DHT22;44854;50.838;4.438;2024-03-02T01:11:07;8.30;99.90
59067;DHT22;44854;50.838;4.438;2024-03-02T01:13:33;8.20;99.90
59067;DHT22;44854;50.838;4.438;2024-03-02T01:16:00;8.20;99.90
59067;DHT22;44854;50.838;4.438;2024-03-02T01:18:26;8.20;99.90
59067;DHT22;44854;50.838;4.438;2024-03-02T01:20:52;8.30;99.90
59067;DHT22;44854;50.838;4.438;2024-03-02T01:23:20;8.20;99.90
59067;DHT22;44854;50.838;4.438;2024-03-02T01:25:47;8.20;99.90
59067;DHT22;44854;50.838;4.438;2024-03-02T01:28:13;8.10;99.90
59067;DHT22;44854;50.838;4.438;2024-03-02T01:30:39;8.20;99.90
59067;DHT22;44854;50.838;4.438;2024-03-02T01:33:05;8.30;99.90
59067;DHT22;44854;50.838;4.438;2024-03-02T01:35:32;8.30;99.90
59067;DHT22;44854;50.838;4.438;2024-03-02T01:37:58;8.40;99.90
59067;DHT22;44854;50.838;4.438;2024-03-02T01:40:26;8.40;99.90
59067;DHT22;44854;50.838;4.438;2024-03-02T01:42:52;8.40;99.90
59067;DHT22;44854;50.838;4.438;2024-03-02T01:45:19;8.40;99.90
59067;DHT22;44854;50.838;4.438;2024-03-02T01:47:45;8.50;99.90
59067;DHT22;44854;50.838;4.438;2024-03-02T01:50:11;8.30;99.90
59067;DHT22;44854;50.838;4.438;2024-03-02T01:52:37;8.30;99.90
59067;DHT22;44854;50.838;4.438;2024-03-02T01:55:03;8.20;99.90
59067;DHT22;44854;50.838;4.438;2024-03-02T01:57:30;8.20;99.90
59067;DHT22;44854;50.838;4.438;2024-03-02T01:59:57;8.20;99.90
59067;DHT22;44854;50.838;4.438;2024-03-02T02:02:26;8.20;99.90
59067;DHT22;44854;50.838;4.438;2024-03-02T02:04:52;8.30;99.90
59067;DHT22;44854;50.838;4.438;2024-03-02T02:07:18;8.30;99.90
59067;DHT22;44854;50.838;4.438;2024-03-02T02:09:44;8.30;99.90
59067;DHT22;44854;50.838;4.438;2024-03-02T02:12:10;8.40;99.90
59067;DHT22;44854;50.838;4.438;2024-03-02T02:14:36;8.40;99.90
59067;DHT22;44854;50.838;4.438;2024-03-02T02:17:02;8.40;99.90
59067;DHT22;44854;50.838;4.438;2024-03-02T02:19:28;8.40;99.90
59067;DHT22;44854;50.838;4.438;2024-03-02T02:21:54;8.40;99.90
59067;DHT22;44854;50.838;4.438;2024-03-02T02:24:20;8.40;99.90
59067;DHT22;44854;50.838;4.438;2024-03-02T02:26:46;8.40;99.90
59067;DHT22;44854;50.838;4.438;2024-03-02T02:29:11;8.40;99.90
59067;DHT22;44854;50.838;4.438;2024-03-02T02:31:40;8.40;99.90
59067;DHT22;44854;50.838;4.438;2024-03-02T02:34:06;8.40;99.90
59067;DHT22;44854;50.838;4.438;2024-03-02T02:36:38;8.50;99.90
59067;DHT22;44854;50.838;4.438;2024-03-02T02:39:05;8.50;99.90
59067;DHT22;44854;50.838;4.438;2024-03-02T02:41:33;8.60;99.90
59067;DHT22;44854;50.838;4.438;2024-03-02T02:43:58;8.50;99.90
59067;DHT22;44854;50.838;4.438;2024-03-02T02:46:24;8.50;99.90
59067;DHT22;44854;50.838;4.438;2024-03-02T02:48:50;8.50;99.90
59067;DHT22;44854;50.838;4.438;2024-03-02T02:51:17;8.40;99.90
59067;DHT22;44854;50.838;4.438;2024-03-02T02:53:43;8.30;99.90
59067;DHT22;44854;50.838;4.438;2024-03-02T02:56:08;8.40;99.90
59067;DHT22;44854;50.838;4.438;2024-03-02T02:58:34;8.50;99.90
59067;DHT22;44854;50.838;4.438;2024-03-02T03:01:01;8.40;99.90
59067;DHT22;44854;50.838;4.438;2024-03-02T03:03:26;8.50;99.90
59067;DHT22;44854;50.838;4.438;2024-03-02T03:05:53;8.30;99.90
59067;DHT22;44854;50.838;4.438;2024-03-02T03:08:19;8.30;99.90
59067;DHT22;44854;50.838;4.438;2024-03-02T03:10:45;8.20;99.90
59067;DHT22;44854;50.838;4.438;2024-03-02T03:13:11;8.10;99.90
59067;DHT22;44854;50.838;4.438;2024-03-02T03:15:37;8.00;99.90
59067;DHT22;44854;50.838;4.438;2024-03-02T03:18:06;8.00;99.90
59067;DHT22;44854;50.838;4.438;2024-03-02T03:20:33;8.00;99.90
59067;DHT22;44854;50.838;4.438;2024-03-02T03:22:59;8.10;99.90
59067;DHT22;44854;50.838;4.438;2024-03-02T03:25:25;8.10;99.90
59067;DHT22;44854;50.838;4.438;2024-03-02T03:27:51;8.00;99.90
59067;DHT22;44854;50.838;4.438;2024-03-02T03:30:19;8.00;99.90
59067;DHT22;44854;50.838;4.438;2024-03-02T03:32:45;8.00;99.90
59067;DHT22;44854;50.838;4.438;2024-03-02T03:35:11;8.00;99.90
59067;DHT22;44854;50.838;4.438;2024-03-02T03:37:38;8.00;99.90
59067;DHT22;44854;50.838;4.438;2024-03-02T03:40:04;8.00;99.90
59067;DHT22;44854;50.838;4.438;2024-03-02T03:42:38;8.10;99.90
59067;DHT22;44854;50.838;4.438;2024-03-02T03:45:05;8.10;99.90
59067;DHT22;44854;50.838;4.438;2024-03-02T03:47:34;8.20;99.90
59067;DHT22;44854;50.838;4.438;2024-03-02T03:49:59;8.20;99.90
59067;DHT22;44854;50.838;4.438;2024-03-02T03:52:25;8.30;99.90
59067;DHT22;44854;50.838;4.438;2024-03-02T03:54:51;8.30;99.90
59067;DHT22;44854;50.838;4.438;2024-03-02T03:57:17;8.20;99.90
59067;DHT22;44854;50.838;4.438;2024-03-02T03:59:43;8.20;99.90
59067;DHT22;44854;50.838;4.438;2024-03-02T04:02:09;8.10;99.90
59067;DHT22;44854;50.838;4.438;2024-03-02T04:04:37;8.10;99.90
59067;DHT22;44854;50.838;4.438;2024-03-02T04:07:02;8.00;99.90
59067;DHT22;44854;50.838;4.438;2024-03-02T04:09:28;8.00;99.90
59067;DHT22;44854;50.838;4.438;2024-03-02T04:11:55;8.00;99.90
59067;DHT22;44854;50.838;4.438;2024-03-02T04:14:20;8.00;99.90
59067;DHT22;44854;50.838;4.438;2024-03-02T04:16:46;8.00;99.90
59067;DHT22;44854;50.838;4.438;2024-03-02T04:19:12;8.00;99.90
59067;DHT22;44854;50.838;4.438;2024-03-02T04:21:37;7.90;99.90
59067;DHT22;44854;50.838;4.438;2024-03-02T04:24:03;8.00;99.90
59067;DHT22;44854;50.838;4.438;2024-03-02T04:26:29;8.00;99.90
59067;DHT22;44854;50.838;4.438;2024-03-02T04:28:55;7.90;99.90
59067;DHT22;44854;50.838;4.438;2024-03-02T04:31:20;7.90;99.90
59067;DHT22;44854;50.838;4.438;2024-03-02T04:33:46;7.80;99.90
59067;DHT22;44854;50.838;4.438;2024-03-02T04:36:12;7.90;99.90
59067;DHT22;44854;50.838;4.438;2024-03-02T04:38:38;7.90;99.90
59067;DHT22;44854;50.838;4.438;2024-03-02T04:41:04;7.80;99.90
59067;DHT22;44854;50.838;4.438;2024-03-02T04:43:34;7.80;99.90
59067;DHT22;44854;50.838;4.438;2024-03-02T04:46:00;7.80;99.90
59067;DHT22;44854;50.838;4.438;2024-03-02T04:48:26;7.90;99.90
59067;DHT22;44854;50.838;4.438;2024-03-02T04:50:51;7.90;99.90
59067;DHT22;44854;50.838;4.438;2024-03-02T04:53:17;7.80;99.90
59067;DHT22;44854;50.838;4.438;2024-03-02T04:55:44;7.80;99.90
59067;DHT22;44854;50.838;4.438;2024-03-02T04:58:30;7.70;99.90
59067;DHT22;44854;50.838;4.438;2024-03-02T05:00:56;7.70;99.90
59067;DHT22;44854;50.838;4.438;2024-03-02T05:03:23;7.70;99.90
59067;DHT22;44854;50.838;4.438;2024-03-02T05:05:51;7.70;99.90
59067;DHT22;44854;50.838;4.438;2024-03-02T05:08:16;7.60;99.90
59067;DHT22;44854;50.838;4.438;2024-03-02T05:10:42;7.60;99.90
59067;DHT22;44854;50.838;4.438;2024-03-02T05:13:08;7.70;99.90
59067;DHT22;44854;50.838;4.438;2024-03-02T05:15:33;7.50;99.90
59067;DHT22;44854;50.838;4.438;2024-03-02T05:17:59;7.50;99.90
59067;DHT22;44854;50.838;4.438;2024-03-02T05:20:30;7.60;99.90
59067;DHT22;44854;50.838;4.438;2024-03-02T05:22:56;7.60;99.90
59067;DHT22;44854;50.838;4.438;2024-03-02T05:25:22;7.50;99.90
59067;DHT22;44854;50.838;4.438;2024-03-02T05:27:48;7.60;99.90
59067;DHT22;44854;50.838;4.438;2024-03-02T05:30:14;7.60;99.90
59067;DHT22;44854;50.838;4.438;2024-03-02T05:32:40;7.60;99.90
59067;DHT22;44854;50.838;4.438;2024-03-02T05:35:06;7.60;99.90
59067;DHT22;44854;50.838;4.438;2024-03-02T05:37:33;7.50;99.90
59067;DHT22;44854;50.838;4.438;2024-03-02T05:39:59;7.50;99.90
59067;DHT22;44854;50.838;4.438;2024-03-02T05:42:26;7.50;99.90
59067;DHT22;44854;50.838;4.438;2024-03-02T05:44:53;7.50;99.90
59067;DHT22;44854;50.838;4.438;2024-03-02T05:47:19;7.50;99.90
59067;DHT22;44854;50.838;4.438;2024-03-02T05:49:44;7.50;99.90
59067;DHT22;44854;50.838;4.438;2024-03-02T05:52:10;7.50;99.90
59067;DHT22;44854;50.838;4.438;2024-03-02T05:54:37;7.60;99.90
59067;DHT22;44854;50.838;4.438;2024-03-02T05:57:02;7.50;99.90
59067;DHT22;44854;50.838;4.438;2024-03-02T05:59:51;7.50;99.90
59067;DHT22;44854;50.838;4.438;2024-03-02T06:02:17;7.40;99.90
59067;DHT22;44854;50.838;4.438;2024-03-02T06:04:42;7.40;99.90
59067;DHT22;44854;50.838;4.438;2024-03-02T06:07:08;7.40;99.90
59067;DHT22;44854;50.838;4.438;2024-03-02T06:09:33;7.40;99.90
59067;DHT22;44854;50.838;4.438;2024-03-02T06:11:59;7.50;99.90
59067;DHT22;44854;50.838;4.438;2024-03-02T06:14:25;7.50;99.90
59067;DHT22;44854;50.838;4.438;2024-03-02T06:16:51;7.50;99.90
59067;DHT22;44854;50.838;4.438;2024-03-02T06:19:17;7.40;99.90
59067;DHT22;44854;50.838;4.438;2024-03-02T06:21:43;7.40;99.90
59067;DHT22;44854;50.838;4.438;2024-03-02T06:24:08;7.40;99.90
59067;DHT22;44854;50.838;4.438;2024-03-02T06:26:34;7.40;99.90
59067;DHT22;44854;50.838;4.438;2024-03-02T06:29:00;7.30;99.90
59067;DHT22;44854;50.838;4.438;2024-03-02T06:31:27;7.30;99.90
59067;DHT22;44854;50.838;4.438;2024-03-02T06:33:53;7.30;99.90
59067;DHT22;44854;50.838;4.438;2024-03-02T06:36:19;7.30;99.90
59067;DHT22;44854;50.838;4.438;2024-03-02T06:38:44;7.20;99.90
59067;DHT22;44854;50.838;4.438;2024-03-02T06:41:10;7.30;99.90
59067;DHT22;44854;50.838;4.438;2024-03-02T06:43:36;7.30;99.90
59067;DHT22;44854;50.838;4.438;2024-03-02T06:46:02;7.30;99.90
59067;DHT22;44854;50.838;4.438;2024-03-02T06:48:28;7.30;99.90
59067;DHT22;44854;50.838;4.438;2024-03-02T06:50:55;7.20;99.90
59067;DHT22;44854;50.838;4.438;2024-03-02T06:53:21;7.20;99.90
59067;DHT22;44854;50.838;4.438;2024-03-02T06:55:47;7.20;99.90
59067;DHT22;44854;50.838;4.438;2024-03-02T06:58:13;7.20;99.90
59067;DHT22;44854;50.838;4.438;2024-03-02T07:00:43;7.20;99.90
59067;DHT22;44854;50.838;4.438;2024-03-02T07:03:13;7.30;99.90
59067;DHT22;44854;50.838;4.438;2024-03-02T07:05:39;7.20;99.90
59067;DHT22;44854;50.838;4.438;2024-03-02T07:08:05;7.20;99.90
59067;DHT22;44854;50.838;4.438;2024-03-02T07:10:31;7.20;99.90
59067;DHT22;44854;50.838;4.438;2024-03-02T07:12:57;7.20;99.90
59067;DHT22;44854;50.838;4.438;2024-03-02T07:15:25;7.20;99.90
59067;DHT22;44854;50.838;4.438;2024-03-02T07:17:54;7.30;99.90
59067;DHT22;44854;50.838;4.438;2024-03-02T07:20:20;7.30;99.90
59067;DHT22;44854;50.838;4.438;2024-03-02T07:22:46;7.30;99.90
59067;DHT22;44854;50.838;4.438;2024-03-02T07:25:11;7.30;99.90
59067;DHT22;44854;50.838;4.438;2024-03-02T07:27:38;7.30;99.90
59067;DHT22;44854;50.838;4.438;2024-03-02T07:30:04;7.30;99.90
59067;DHT22;44854;50.838;4.438;2024-03-02T07:32:32;7.40;99.90
59067;DHT22;44854;50.838;4.438;2024-03-02T07:34:58;7.50;99.90
59067;DHT22;44854;50.838;4.438;2024-03-02T07:37:24;7.50;99.90
59067;DHT22;44854;50.838;4.438;2024-03-02T07:39:50;7.50;99.90
59067;DHT22;44854;50.838;4.438;2024-03-02T07:42:16;7.50;99.90
59067;DHT22;44854;50.838;4.438;2024-03-02T07:44:44;7.60;99.90
59067;DHT22;44854;50.838;4.438;2024-03-02T07:47:10;7.60;99.90
59067;DHT22;44854;50.838;4.438;2024-03-02T07:49:35;7.60;99.90
59067;DHT22;44854;50.838;4.438;2024-03-02T07:52:01;7.60;99.90
59067;DHT22;44854;50.838;4.438;2024-03-02T07:54:28;7.60;99.90
59067;DHT22;44854;50.838;4.438;2024-03-02T07:56:53;7.70;99.90
59067;DHT22;44854;50.838;4.438;2024-03-02T07:59:19;7.80;99.90
59067;DHT22;44854;50.838;4.438;2024-03-02T08:01:48;7.80;99.90
59067;DHT22;44854;50.838;4.438;2024-03-02T08:04:14;7.90;99.90
59067;DHT22;44854;50.838;4.438;2024-03-02T08:06:40;7.90;99.90
59067;DHT22;44854;50.838;4.438;2024-03-02T08:09:05;8.10;99.90
59067;DHT22;44854;50.838;4.438;2024-03-02T08:11:35;8.20;99.90
59067;DHT22;44854;50.838;4.438;2024-03-02T08:14:01;8.20;99.90
59067;DHT22;44854;50.838;4.438;2024-03-02T08:16:26;8.20;99.90
59067;DHT22;44854;50.838;4.438;2024-03-02T08:18:52;8.30;99.90
59067;DHT22;44854;50.838;4.438;2024-03-02T08:21:19;8.40;99.90
59067;DHT22;44854;50.838;4.438;2024-03-02T08:23:45;8.50;99.90
59067;DHT22;44854;50.838;4.438;2024-03-02T08:26:11;8.60;99.90
59067;DHT22;44854;50.838;4.438;2024-03-02T08:28:37;8.60;99.90
59067;DHT22;44854;50.838;4.438;2024-03-02T08:31:04;8.60;99.90
59067;DHT22;44854;50.838;4.438;2024-03-02T08:33:30;8.70;99.90
59067;DHT22;44854;50.838;4.438;2024-03-02T08:35:56;8.90;99.90
59067;DHT22;44854;50.838;4.438;2024-03-02T08:38:22;8.90;99.90
59067;DHT22;44854;50.838;4.438;2024-03-02T08:40:49;9.00;99.90
59067;DHT22;44854;50.838;4.438;2024-03-02T08:43:15;9.10;99.90
59067;DHT22;44854;50.838;4.438;2024-03-02T08:45:41;9.10;99.90
59067;DHT22;44854;50.838;4.438;2024-03-02T08:48:08;9.20;99.90
59067;DHT22;44854;50.838;4.438;2024-03-02T08:50:34;9.40;99.90
59067;DHT22;44854;50.838;4.438;2024-03-02T08:53:00;9.50;99.90
59067;DHT22;44854;50.838;4.438;2024-03-02T08:55:26;9.40;99.90
59067;DHT22;44854;50.838;4.438;2024-03-02T08:57:52;9.50;99.90
59067;DHT22;44854;50.838;4.438;2024-03-02T09:00:18;9.70;99.90
59067;DHT22;44854;50.838;4.438;2024-03-02T09:02:44;9.80;99.90
59067;DHT22;44854;50.838;4.438;2024-03-02T09:05:11;9.80;99.90
59067;DHT22;44854;50.838;4.438;2024-03-02T09:07:36;9.80;99.90
59067;DHT22;44854;50.838;4.438;2024-03-02T09:10:05;9.90;99.90
59067;DHT22;44854;50.838;4.438;2024-03-02T09:12:30;10.00;99.90
59067;DHT22;44854;50.838;4.438;2024-03-02T09:14:56;10.10;99.90
59067;DHT22;44854;50.838;4.438;2024-03-02T09:17:23;10.00;99.90
59067;DHT22;44854;50.838;4.438;2024-03-02T09:19:48;10.10;99.90
59067;DHT22;44854;50.838;4.438;2024-03-02T09:22:18;10.20;99.90
59067;DHT22;44854;50.838;4.438;2024-03-02T09:24:44;10.30;99.90
59067;DHT22;44854;50.838;4.438;2024-03-02T09:27:09;10.30;99.90
59067;DHT22;44854;50.838;4.438;2024-03-02T09:29:35;10.30;99.90
59067;DHT22;44854;50.838;4.438;2024-03-02T09:32:01;10.30;99.90
59067;DHT22;44854;50.838;4.438;2024-03-02T09:34:27;10.20;99.90
59067;DHT22;44854;50.838;4.438;2024-03-02T09:36:53;10.10;99.90
59067;DHT22;44854;50.838;4.438;2024-03-02T09:39:19;10.20;99.90
59067;DHT22;44854;50.838;4.438;2024-03-02T09:41:47;10.50;99.90
59067;DHT22;44854;50.838;4.438;2024-03-02T09:44:13;10.50;99.90
59067;DHT22;44854;50.838;4.438;2024-03-02T09:46:39;10.60;99.90
59067;DHT22;44854;50.838;4.438;2024-03-02T09:49:05;10.80;99.90
59067;DHT22;44854;50.838;4.438;2024-03-02T09:51:32;10.90;99.90
59067;DHT22;44854;50.838;4.438;2024-03-02T09:54:01;10.80;99.90
59067;DHT22;44854;50.838;4.438;2024-03-02T09:56:26;10.80;99.90
59067;DHT22;44854;50.838;4.438;2024-03-02T09:58:52;11.00;99.90
59067;DHT22;44854;50.838;4.438;2024-03-02T10:01:18;11.10;99.90
59067;DHT22;44854;50.838;4.438;2024-03-02T10:03:44;11.00;99.90
59067;DHT22;44854;50.838;4.438;2024-03-02T10:06:26;11.20;99.90
59067;DHT22;44854;50.838;4.438;2024-03-02T10:08:53;11.30;99.90
59067;DHT22;44854;50.838;4.438;2024-03-02T10:11:34;11.70;99.90
59067;DHT22;44854;50.838;4.438;2024-03-02T10:14:09;11.80;99.90
59067;DHT22;44854;50.838;4.438;2024-03-02T10:16:36;11.80;99.90
59067;DHT22;44854;50.838;4.438;2024-03-02T10:19:21;11.90;99.90
59067;DHT22;44854;50.838;4.438;2024-03-02T10:21:48;12.00;99.90
59067;DHT22;44854;50.838;4.438;2024-03-02T10:24:16;12.10;99.90
59067;DHT22;44854;50.838;4.438;2024-03-02T10:26:42;12.20;99.90
59067;DHT22;44854;50.838;4.438;2024-03-02T10:29:12;12.10;99.90
59067;DHT22;44854;50.838;4.438;2024-03-02T10:31:39;12.00;99.90
59067;DHT22;44854;50.838;4.438;2024-03-02T10:34:09;12.10;99.90
59067;DHT22;44854;50.838;4.438;2024-03-02T10:36:35;12.20;99.90
59067;DHT22;44854;50.838;4.438;2024-03-02T10:39:05;12.10;99.90
59067;DHT22;44854;50.838;4.438;2024-03-02T10:41:35;12.20;99.90
59067;DHT22;44854;50.838;4.438;2024-03-02T10:44:04;12.30;99.90
59067;DHT22;44854;50.838;4.438;2024-03-02T10:46:31;12.40;99.90
59067;DHT22;44854;50.838;4.438;2024-03-02T10:49:01;12.50;99.90
59067;DHT22;44854;50.838;4.438;2024-03-02T10:51:29;12.40;99.90
59067;DHT22;44854;50.838;4.438;2024-03-02T10:53:57;12.40;99.90
59067;DHT22;44854;50.838;4.438;2024-03-02T10:56:33;12.40;99.90
59067;DHT22;44854;50.838;4.438;2024-03-02T11:01:48;12.60;99.90
59067;DHT22;44854;50.838;4.438;2024-03-02T11:04:16;12.70;99.90
59067;DHT22;44854;50.838;4.438;2024-03-02T11:06:54;12.80;99.90
59067;DHT22;44854;50.838;4.438;2024-03-02T11:09:25;12.90;99.90
59067;DHT22;44854;50.838;4.438;2024-03-02T11:12:09;12.90;99.90
59067;DHT22;44854;50.838;4.438;2024-03-02T11:14:41;12.90;99.90
59067;DHT22;44854;50.838;4.438;2024-03-02T11:17:11;12.90;99.90
59067;DHT22;44854;50.838;4.438;2024-03-02T11:19:39;12.90;99.90
59067;DHT22;44854;50.838;4.438;2024-03-02T11:22:06;13.00;99.90
59067;DHT22;44854;50.838;4.438;2024-03-02T11:24:33;12.90;99.90
59067;DHT22;44854;50.838;4.438;2024-03-02T11:27:00;13.00;99.90
59067;DHT22;44854;50.838;4.438;2024-03-02T11:32:05;13.40;99.90
59067;DHT22;44854;50.838;4.438;2024-03-02T11:37:00;13.40;99.90
59067;DHT22;44854;50.838;4.438;2024-03-02T11:39:27;13.40;99.90
59067;DHT22;44854;50.838;4.438;2024-03-02T11:41:54;13.60;99.90
59067;DHT22;44854;50.838;4.438;2024-03-02T11:44:20;13.50;99.90
59067;DHT22;44854;50.838;4.438;2024-03-02T11:47:02;13.50;99.90
59067;DHT22;44854;50.838;4.438;2024-03-02T11:49:43;13.50;99.90
59067;DHT22;44854;50.838;4.438;2024-03-02T11:52:10;13.70;99.90
59067;DHT22;44854;50.838;4.438;2024-03-02T11:54:38;13.70;99.90
59067;DHT22;44854;50.838;4.438;2024-03-02T11:57:12;13.70;99.90
59067;DHT22;44854;50.838;4.438;2024-03-02T11:59:38;13.90;99.90
59067;DHT22;44854;50.838;4.438;2024-03-02T12:02:04;14.20;99.90
59067;DHT22;44854;50.838;4.438;2024-03-02T12:04:30;14.20;99.90
59067;DHT22;44854;50.838;4.438;2024-03-02T12:07:00;14.20;99.90
59067;DHT22;44854;50.838;4.438;2024-03-02T12:09:29;14.30;99.90
59067;DHT22;44854;50.838;4.438;2024-03-02T12:12:21;14.40;99.90
59067;DHT22;44854;50.838;4.438;2024-03-02T12:14:52;14.50;99.90
59067;DHT22;44854;50.838;4.438;2024-03-02T12:17:20;14.50;99.90
59067;DHT22;44854;50.838;4.438;2024-03-02T12:19:48;14.20;99.90
59067;DHT22;44854;50.838;4.438;2024-03-02T12:22:14;14.00;99.90
59067;DHT22;44854;50.838;4.438;2024-03-02T12:24:41;13.90;99.90
59067;DHT22;44854;50.838;4.438;2024-03-02T12:27:11;13.90;99.90
59067;DHT22;44854;50.838;4.438;2024-03-02T12:29:37;14.30;99.90
59067;DHT22;44854;50.838;4.438;2024-03-02T12:32:04;14.20;99.90
59067;DHT22;44854;50.838;4.438;2024-03-02T12:34:31;14.00;99.90
59067;DHT22;44854;50.838;4.438;2024-03-02T12:36:57;13.90;99.90
59067;DHT22;44854;50.838;4.438;2024-03-02T12:39:22;13.90;99.90
59067;DHT22;44854;50.838;4.438;2024-03-02T12:41:49;13.90;99.90
59067;DHT22;44854;50.838;4.438;2024-03-02T12:44:19;14.10;99.90
59067;DHT22;44854;50.838;4.438;2024-03-02T12:46:46;14.00;99.90
59067;DHT22;44854;50.838;4.438;2024-03-02T12:49:14;13.90;99.90
59067;DHT22;44854;50.838;4.438;2024-03-02T12:51:42;13.70;99.90
59067;DHT22;44854;50.838;4.438;2024-03-02T12:54:09;13.40;99.90
59067;DHT22;44854;50.838;4.438;2024-03-02T12:56:37;13.50;99.90
59067;DHT22;44854;50.838;4.438;2024-03-02T12:59:04;13.60;99.90
59067;DHT22;44854;50.838;4.438;2024-03-02T13:01:30;13.80;99.90
59067;DHT22;44854;50.838;4.438;2024-03-02T13:03:58;14.00;99.90
59067;DHT22;44854;50.838;4.438;2024-03-02T13:06:25;14.20;99.90
59067;DHT22;44854;50.838;4.438;2024-03-02T13:08:53;14.30;99.90
59067;DHT22;44854;50.838;4.438;2024-03-02T13:11:21;14.40;99.90
59067;DHT22;44854;50.838;4.438;2024-03-02T13:13:47;14.40;99.90
59067;DHT22;44854;50.838;4.438;2024-03-02T13:16:13;14.40;99.90
59067;DHT22;44854;50.838;4.438;2024-03-02T13:18:41;14.40;99.90
59067;DHT22;44854;50.838;4.438;2024-03-02T13:21:10;14.20;99.90
59067;DHT22;44854;50.838;4.438;2024-03-02T13:23:35;14.30;99.90
59067;DHT22;44854;50.838;4.438;2024-03-02T13:26:02;14.10;99.90
59067;DHT22;44854;50.838;4.438;2024-03-02T13:28:28;14.00;99.90
59067;DHT22;44854;50.838;4.438;2024-03-02T13:30:54;14.00;99.90
59067;DHT22;44854;50.838;4.438;2024-03-02T13:33:19;14.00;99.90
59067;DHT22;44854;50.838;4.438;2024-03-02T13:35:49;14.00;99.90
59067;DHT22;44854;50.838;4.438;2024-03-02T13:38:19;14.00;99.90
59067;DHT22;44854;50.838;4.438;2024-03-02T13:40:46;14.20;99.90
59067;DHT22;44854;50.838;4.438;2024-03-02T13:43:12;14.20;99.90
59067;DHT22;44854;50.838;4.438;2024-03-02T13:45:38;14.30;99.90
59067;DHT22;44854;50.838;4.438;2024-03-02T13:48:04;14.30;99.90
59067;DHT22;44854;50.838;4.438;2024-03-02T13:50:31;14.30;99.90
59067;DHT22;44854;50.838;4.438;2024-03-02T13:52:57;14.20;99.90
59067;DHT22;44854;50.838;4.438;2024-03-02T13:55:23;14.10;99.90
59067;DHT22;44854;50.838;4.438;2024-03-02T13:57:48;14.10;99.90
59067;DHT22;44854;50.838;4.438;2024-03-02T14:00:16;14.00;99.90
59067;DHT22;44854;50.838;4.438;2024-03-02T14:02:43;14.10;99.90
59067;DHT22;44854;50.838;4.438;2024-03-02T14:05:08;14.10;99.90
59067;DHT22;44854;50.838;4.438;2024-03-02T14:07:41;14.00;99.90
59067;DHT22;44854;50.838;4.438;2024-03-02T14:10:07;14.00;99.90
59067;DHT22;44854;50.838;4.438;2024-03-02T14:12:32;14.00;99.90
59067;DHT22;44854;50.838;4.438;2024-03-02T14:14:59;13.90;99.90
59067;DHT22;44854;50.838;4.438;2024-03-02T14:17:27;13.90;99.90
59067;DHT22;44854;50.838;4.438;2024-03-02T14:19:53;14.00;99.90
59067;DHT22;44854;50.838;4.438;2024-03-02T14:22:20;14.00;99.90
59067;DHT22;44854;50.838;4.438;2024-03-02T14:24:46;14.00;99.90
59067;DHT22;44854;50.838;4.438;2024-03-02T14:27:13;13.90;99.90
59067;DHT22;44854;50.838;4.438;2024-03-02T14:29:42;13.90;99.90
59067;DHT22;44854;50.838;4.438;2024-03-02T14:32:08;14.00;99.90
59067;DHT22;44854;50.838;4.438;2024-03-02T14:34:34;13.90;99.90
59067;DHT22;44854;50.838;4.438;2024-03-02T14:37:01;13.90;99.90
59067;DHT22;44854;50.838;4.438;2024-03-02T14:39:28;13.80;99.90
59067;DHT22;44854;50.838;4.438;2024-03-02T14:41:58;13.70;99.90
59067;DHT22;44854;50.838;4.438;2024-03-02T14:44:23;13.80;99.90
59067;DHT22;44854;50.838;4.438;2024-03-02T14:46:49;14.00;99.90
59067;DHT22;44854;50.838;4.438;2024-03-02T14:49:16;14.30;99.90
59067;DHT22;44854;50.838;4.438;2024-03-02T14:51:41;14.20;99.90
59067;DHT22;44854;50.838;4.438;2024-03-02T14:54:07;14.20;99.90
59067;DHT22;44854;50.838;4.438;2024-03-02T14:56:33;14.00;99.90
59067;DHT22;44854;50.838;4.438;2024-03-02T14:58:58;14.10;99.90
59067;DHT22;44854;50.838;4.438;2024-03-02T15:01:24;14.10;99.90
59067;DHT22;44854;50.838;4.438;2024-03-02T15:03:53;14.10;99.90
59067;DHT22;44854;50.838;4.438;2024-03-02T15:06:18;14.10;99.90
59067;DHT22;44854;50.838;4.438;2024-03-02T15:08:44;14.00;99.90
59067;DHT22;44854;50.838;4.438;2024-03-02T15:11:13;14.00;99.90
59067;DHT22;44854;50.838;4.438;2024-03-02T15:13:39;13.90;99.90
59067;DHT22;44854;50.838;4.438;2024-03-02T15:16:08;13.90;99.90
59067;DHT22;44854;50.838;4.438;2024-03-02T15:18:33;13.90;99.90
59067;DHT22;44854;50.838;4.438;2024-03-02T15:21:03;13.80;99.90
59067;DHT22;44854;50.838;4.438;2024-03-02T15:23:28;13.80;99.90
59067;DHT22;44854;50.838;4.438;2024-03-02T15:25:55;13.70;99.90
59067;DHT22;44854;50.838;4.438;2024-03-02T15:28:21;13.70;99.90
59067;DHT22;44854;50.838;4.438;2024-03-02T15:30:47;13.60;99.90
59067;DHT22;44854;50.838;4.438;2024-03-02T15:33:12;13.70;99.90
59067;DHT22;44854;50.838;4.438;2024-03-02T15:35:38;13.70;99.90
59067;DHT22;44854;50.838;4.438;2024-03-02T15:38:04;13.70;99.90
59067;DHT22;44854;50.838;4.438;2024-03-02T15:40:29;13.70;99.90
59067;DHT22;44854;50.838;4.438;2024-03-02T15:42:55;13.80;99.90
59067;DHT22;44854;50.838;4.438;2024-03-02T15:45:21;13.70;99.90
59067;DHT22;44854;50.838;4.438;2024-03-02T15:47:46;13.70;99.90
59067;DHT22;44854;50.838;4.438;2024-03-02T15:50:12;13.60;99.90
59067;DHT22;44854;50.838;4.438;2024-03-02T15:52:40;13.60;99.90